Time;durP1;ratioP1;P1;durP2;ratioP2;P2;SDS_P1;SDS_P2;PMS_P1;PMS_P2;Temp;Humidity;BMP_temperature;BMP_pressure;BME280_temperature;BME280_humidity;BME280_pressure;Samples;Min_cycle;Max_cycle;Signal;HPM_P1;HPM_P2
2022/07/27 00:00:23;;;;;;;8.38;2.40;;;;;;;16.47;61.49;101927.16;4974732;28;20045;-83
2022/07/27 00:02:49;;;;;;;4.78;2.15;;;;;;;16.45;61.78;101926.28;4974726;28;20033;-83
2022/07/27 00:05:14;;;;;;;7.90;2.40;;;;;;;16.46;61.49;101930.72;4975003;28;20035;-82
2022/07/27 00:07:40;;;;;;;5.82;2.03;;;;;;;16.51;61.18;101926.28;4974637;28;20070;-82
2022/07/27 00:10:05;;;;;;;5.68;2.20;;;;;;;16.41;61.50;101907.59;4974644;28;20027;-83
2022/07/27 00:12:31;;;;;;;4.95;2.25;;;;;;;16.35;61.32;101899.53;4974546;28;20491;-83
2022/07/27 00:14:58;;;;;;;3.78;2.00;;;;;;;16.41;61.42;101927.16;4973542;28;20453;-82
2022/07/27 00:17:25;;;;;;;4.63;1.95;;;;;;;16.38;61.75;101918.22;4974400;28;20041;-83
2022/07/27 00:19:50;;;;;;;5.40;2.13;;;;;;;16.27;61.96;101907.50;4974396;28;20455;-84
2022/07/27 00:22:16;;;;;;;4.50;2.22;;;;;;;16.36;61.83;101928.91;4974251;28;20027;-82
2022/07/27 00:24:41;;;;;;;6.40;2.13;;;;;;;16.26;62.14;101909.28;4973170;28;20456;-82
2022/07/27 00:27:07;;;;;;;8.90;2.00;;;;;;;16.25;61.81;101904.84;4974397;28;20034;-82
2022/07/27 00:29:33;;;;;;;6.05;2.10;;;;;;;16.29;61.55;101908.41;4974785;28;20027;-82
2022/07/27 00:31:58;;;;;;;5.32;2.15;;;;;;;16.35;61.96;101928.88;4974576;28;20114;-83
2022/07/27 00:34:24;;;;;;;5.85;2.20;;;;;;;16.26;62.05;101919.06;4974484;28;20049;-83
2022/07/27 00:36:49;;;;;;;6.28;2.30;;;;;;;16.36;61.88;101925.31;4973355;28;20379;-82
2022/07/27 00:39:14;;;;;;;5.55;2.20;;;;;;;16.28;62.02;101920.88;4956773;28;20375;-83
2022/07/27 00:41:40;;;;;;;7.20;2.28;;;;;;;16.20;61.92;101909.28;4974182;28;20115;-83
2022/07/27 00:44:05;;;;;;;4.88;2.20;;;;;;;16.25;62.05;101914.63;4974351;28;20054;-82
2022/07/27 00:46:31;;;;;;;6.25;2.50;;;;;;;16.04;63.04;101910.06;4974533;28;20359;-83
2022/07/27 00:48:57;;;;;;;5.00;2.30;;;;;;;15.86;63.27;101901.97;4974511;28;20038;-83
2022/07/27 00:51:24;;;;;;;6.20;2.40;;;;;;;15.87;63.37;101904.66;4974255;28;20031;-82
2022/07/27 00:53:52;;;;;;;5.07;2.20;;;;;;;15.86;63.29;101931.31;4972959;28;20370;-82
2022/07/27 00:56:17;;;;;;;6.95;2.53;;;;;;;15.67;63.76;101928.53;4974014;28;20081;-82
2022/07/27 00:58:46;;;;;;;4.00;2.17;;;;;;;15.67;63.75;101933.84;4956573;28;20110;-82
2022/07/27 01:01:12;;;;;;;4.30;2.10;;;;;;;15.55;63.98;101922.19;4974865;28;20027;-82
2022/07/27 01:03:37;;;;;;;6.30;2.20;;;;;;;15.42;64.40;101922.09;4976768;28;20114;-82
2022/07/27 01:06:03;;;;;;;7.85;2.50;;;;;;;15.25;65.38;101927.25;4976846;28;20027;-82
2022/07/27 01:08:29;;;;;;;4.85;2.20;;;;;;;15.17;65.53;101933.41;4977752;28;20030;-83
2022/07/27 01:10:55;;;;;;;5.30;2.30;;;;;;;15.12;65.36;101921.81;4976640;28;20374;-83
2022/07/27 01:13:22;;;;;;;3.90;2.17;;;;;;;15.16;65.13;101928.94;4976147;28;20041;-83
2022/07/27 01:15:51;;;;;;;5.80;2.30;;;;;;;15.03;65.69;101930.56;4976587;28;20046;-83
2022/07/27 01:18:31;;;;;;;4.93;2.22;;;;;;;14.96;65.13;101908.34;4977652;28;20066;-82
2022/07/27 01:20:58;;;;;;;8.20;2.47;;;;;;;14.74;65.70;101896.59;4976600;28;20031;-83
2022/07/27 01:23:25;;;;;;;5.88;2.55;;;;;;;14.81;65.88;101921.50;4977314;28;20031;-82
2022/07/27 01:25:50;;;;;;;5.53;2.40;;;;;;;14.81;66.11;101928.59;4977293;28;20491;-83
2022/07/27 01:28:15;;;;;;;5.90;2.22;;;;;;;14.86;65.84;101924.19;4976689;28;20066;-82
2022/07/27 01:30:41;;;;;;;4.40;2.10;;;;;;;14.96;65.37;101919.00;4976151;28;20463;-82
2022/07/27 01:33:08;;;;;;;4.95;2.30;;;;;;;14.83;65.85;101933.06;4976344;28;20375;-83
2022/07/27 01:35:36;;;;;;;7.45;2.20;;;;;;;14.68;66.12;101909.81;4976033;28;20463;-83
2022/07/27 01:38:02;;;;;;;3.80;2.15;;;;;;;14.62;66.45;101920.41;4977259;28;20049;-84
2022/07/27 01:40:28;;;;;;;4.90;2.20;;;;;;;14.70;65.81;101918.72;4959852;28;20031;-83
2022/07/27 01:42:53;;;;;;;5.20;2.40;;;;;;;14.66;65.86;101916.03;4976180;28;20478;-83
2022/07/27 01:45:18;;;;;;;7.65;2.40;;;;;;;14.69;65.70;101918.72;4976087;28;20027;-82
2022/07/27 01:47:44;;;;;;;4.55;2.22;;;;;;;14.68;65.72;101907.16;4976850;28;20053;-83
2022/07/27 01:50:10;;;;;;;6.53;2.28;;;;;;;14.67;65.64;101913.38;4977040;28;20037;-83
2022/07/27 01:52:38;;;;;;;6.30;2.40;;;;;;;14.56;65.81;101911.44;4977146;28;20042;-83
2022/07/27 01:55:05;;;;;;;4.53;2.25;;;;;;;14.51;65.73;101912.28;4976762;28;20042;-83
2022/07/27 01:57:30;;;;;;;7.00;2.47;;;;;;;14.53;66.07;101920.31;4977004;28;20054;-84
2022/07/27 01:59:56;;;;;;;4.40;2.58;;;;;;;14.43;66.58;101921.00;4976993;28;20070;-83
2022/07/27 02:02:21;;;;;;;6.90;2.45;;;;;;;14.33;66.67;101911.16;4975618;28;20058;-82
2022/07/27 02:04:46;;;;;;;6.40;2.40;;;;;;;14.31;67.04;101903.16;4975553;28;20367;-83
2022/07/27 02:07:12;;;;;;;6.50;2.22;;;;;;;14.37;66.44;101913.88;4975644;28;20062;-83
2022/07/27 02:09:37;;;;;;;3.85;2.25;;;;;;;14.19;66.49;101901.25;4976731;28;20035;-83
2022/07/27 02:14:46;;;;;;;5.38;2.42;;;;;;;14.06;66.77;101896.63;4976707;28;20105;-82
2022/07/27 02:17:12;;;;;;;5.38;2.45;;;;;;;14.13;66.79;101913.53;4975403;28;20460;-82
2022/07/27 02:19:38;;;;;;;4.60;2.40;;;;;;;14.10;66.82;101918.84;4975213;28;20066;-83
2022/07/27 02:22:03;;;;;;;5.75;2.35;;;;;;;14.04;66.86;101909.88;4975079;28;20034;-83
2022/07/27 02:24:29;;;;;;;6.88;2.63;;;;;;;14.08;66.65;101896.66;4976638;28;20058;-82
2022/07/27 02:26:54;;;;;;;6.55;3.10;;;;;;;14.18;66.02;101896.81;4943140;28;20395;-83
2022/07/27 02:29:20;;;;;;;6.60;2.40;;;;;;;14.11;66.28;101908.22;4975076;28;20161;-82
2022/07/27 02:31:45;;;;;;;3.45;2.08;;;;;;;14.06;66.68;101904.63;4976532;28;20038;-82
2022/07/27 02:34:11;;;;;;;4.38;2.20;;;;;;;14.14;66.47;101907.38;4975257;28;20085;-82
2022/07/27 02:36:36;;;;;;;5.28;2.42;;;;;;;13.95;66.18;101861.03;4974906;28;20056;-82
2022/07/27 02:39:02;;;;;;;3.80;2.20;;;;;;;14.12;65.48;101880.75;4975079;28;20033;-82
2022/07/27 02:41:27;;;;;;;5.55;2.40;;;;;;;14.25;65.58;101903.06;4975865;28;20364;-82
2022/07/27 02:43:52;;;;;;;5.63;2.60;;;;;;;14.22;65.63;101901.28;4977111;28;20411;-83
2022/07/27 02:46:18;;;;;;;4.93;2.30;;;;;;;14.13;65.53;101893.19;4976497;28;20031;-82
2022/07/27 02:48:44;;;;;;;6.13;2.40;;;;;;;13.80;66.01;101876.81;4974874;28;20368;-82
2022/07/27 02:51:09;;;;;;;4.65;2.35;;;;;;;13.85;66.41;101904.31;4976023;28;20042;-82
2022/07/27 02:53:35;;;;;;;4.60;2.47;;;;;;;13.74;66.73;101905.03;4958482;28;20126;-82
2022/07/27 02:56:00;;;;;;;5.07;2.40;;;;;;;13.64;66.90;101895.16;4976037;28;20031;-83
2022/07/27 02:58:26;;;;;;;8.35;2.30;;;;;;;13.52;67.13;101898.50;4974392;28;20039;-82
2022/07/27 03:00:51;;;;;;;4.78;2.30;;;;;;;13.38;67.94;101902.72;4974567;28;20382;-83
2022/07/27 03:03:17;;;;;;;5.35;2.38;;;;;;;13.29;68.25;101894.63;4974425;28;20042;-83
2022/07/27 03:05:42;;;;;;;4.15;2.30;;;;;;;13.25;68.63;101901.63;4975816;28;20030;-84
2022/07/27 03:08:08;;;;;;;6.15;2.50;;;;;;;13.05;68.89;101892.38;4975742;28;20027;-84
2022/07/27 03:10:33;;;;;;;4.22;2.35;;;;;;;13.12;68.67;101909.31;4975722;28;20047;-83
2022/07/27 03:12:59;;;;;;;6.15;2.60;;;;;;;12.96;68.98;101889.59;4974358;28;20085;-82
2022/07/27 03:15:24;;;;;;;4.20;2.50;;;;;;;12.96;69.66;101909.03;4974768;28;20451;-82
2022/07/27 03:17:50;;;;;;;6.70;2.40;;;;;;;12.85;69.36;101904.41;4975369;28;20106;-82
2022/07/27 03:20:15;;;;;;;7.03;2.75;;;;;;;12.88;69.86;101910.66;4975513;28;20035;-83
2022/07/27 03:22:41;;;;;;;4.55;2.60;;;;;;;12.90;69.58;101911.59;4974882;28;20078;-84
2022/07/27 03:25:07;;;;;;;4.72;2.47;;;;;;;12.84;69.36;101899.97;4975165;28;20437;-83
2022/07/27 03:27:33;;;;;;;4.03;2.45;;;;;;;13.09;69.27;101910.16;4974168;28;20033;-82
2022/07/27 03:29:58;;;;;;;7.15;2.60;;;;;;;13.08;68.89;101896.88;4975761;28;20034;-83
2022/07/27 03:32:24;;;;;;;7.32;2.58;;;;;;;13.11;68.63;101910.19;4973997;28;20031;-82
2022/07/27 03:34:49;;;;;;;6.65;2.78;;;;;;;12.99;68.73;101890.53;4975672;28;20034;-83
2022/07/27 03:37:16;;;;;;;6.30;2.67;;;;;;;12.96;68.50;101895.78;4973866;28;20141;-83
2022/07/27 03:39:41;;;;;;;7.82;2.78;;;;;;;13.00;68.53;101905.56;4974994;28;20480;-83
2022/07/27 03:42:08;;;;;;;5.57;2.55;;;;;;;13.03;68.59;101889.72;4974036;28;20065;-82
2022/07/27 03:44:33;;;;;;;4.80;2.65;;;;;;;13.22;68.29;101916.56;4974251;28;20448;-82
2022/07/27 03:46:58;;;;;;;5.38;2.72;;;;;;;13.24;68.43;101917.53;4957725;28;20077;-83
2022/07/27 03:49:24;;;;;;;7.32;2.75;;;;;;;13.18;68.26;101896.16;4974218;28;20451;-82
2022/07/27 03:51:49;;;;;;;5.80;2.70;;;;;;;13.41;67.49;101909.84;4974599;28;20121;-83
2022/07/27 03:54:16;;;;;;;4.53;2.60;;;;;;;13.42;67.03;101912.53;4973023;28;20062;-83
2022/07/27 03:56:42;;;;;;;5.57;2.80;;;;;;;13.23;67.67;101905.09;4972657;28;20122;-83
2022/07/27 03:59:07;;;;;;;6.25;2.85;;;;;;;13.19;67.68;101913.84;4974478;28;20083;-82
2022/07/27 04:01:33;;;;;;;5.47;3.10;;;;;;;13.08;67.63;101899.53;4972750;28;20383;-82
2022/07/27 04:03:58;;;;;;;8.57;2.85;;;;;;;13.04;68.55;101910.06;4972697;28;20027;-83
2022/07/27 04:06:24;;;;;;;5.22;2.88;;;;;;;12.99;68.79;101924.13;4972561;28;20045;-83
2022/07/27 04:08:49;;;;;;;8.27;2.80;;;;;;;12.90;69.24;101923.97;4973100;28;20034;-82
2022/07/27 04:11:15;;;;;;;7.25;2.80;;;;;;;12.81;69.80;101921.16;4974272;28;20030;-82
2022/07/27 04:13:42;;;;;;;7.05;2.63;;;;;;;12.70;69.79;101908.56;4974350;28;20118;-82
2022/07/27 04:16:07;;;;;;;5.93;2.75;;;;;;;12.85;69.74;101922.97;4974476;28;20053;-82
2022/07/27 04:18:33;;;;;;;3.08;2.60;;;;;;;13.05;69.44;101913.63;4972592;28;20047;-82
2022/07/27 04:21:00;;;;;;;6.72;2.70;;;;;;;13.28;68.38;101914.97;4974107;28;20391;-82
2022/07/27 04:23:26;;;;;;;5.45;2.72;;;;;;;13.41;67.78;101918.72;4972509;28;20500;-82
2022/07/27 04:25:51;;;;;;;4.53;2.78;;;;;;;13.49;67.51;101926.81;4973875;28;20139;-82
2022/07/27 04:28:17;;;;;;;6.47;3.03;;;;;;;13.45;67.82;101922.31;4972586;28;20422;-83
2022/07/27 04:30:42;;;;;;;6.45;3.00;;;;;;;13.41;68.57;101923.13;4972619;28;20026;-82
2022/07/27 04:33:07;;;;;;;9.50;3.30;;;;;;;13.35;68.74;101917.69;4956279;28;20364;-83
2022/07/27 04:35:33;;;;;;;13.23;3.10;;;;;;;13.34;68.28;101914.16;4973774;28;20037;-82
2022/07/27 04:37:58;;;;;;;4.10;2.90;;;;;;;13.52;68.56;101914.44;4960004;28;20113;-82
2022/07/27 04:40:24;;;;;;;8.63;3.35;;;;;;;13.63;68.71;101921.72;4960417;28;20435;-83
2022/07/27 04:42:49;;;;;;;6.68;3.22;;;;;;;13.75;68.78;101925.44;4978009;28;20027;-82
2022/07/27 04:45:14;;;;;;;9.77;3.50;;;;;;;13.86;68.89;101935.31;4960195;28;20070;-82
2022/07/27 04:47:40;;;;;;;7.50;3.20;;;;;;;13.97;68.63;101929.31;4976767;28;20496;-83
2022/07/27 04:50:06;;;;;;;12.00;3.40;;;;;;;14.01;68.36;101909.88;4958966;28;20039;-83
2022/07/27 04:52:31;;;;;;;7.85;3.40;;;;;;;14.25;67.91;101927.00;4974978;28;20043;-82
2022/07/27 04:54:56;;;;;;;6.22;3.22;;;;;;;14.16;67.79;101916.25;4974625;28;20031;-82
2022/07/27 04:57:22;;;;;;;6.20;3.35;;;;;;;14.24;68.16;101936.75;4975817;28;20033;-81
2022/07/27 04:59:47;;;;;;;4.97;3.10;;;;;;;14.26;68.27;101943.00;4976406;28;20039;-81
2022/07/27 05:02:13;;;;;;;6.05;3.67;;;;;;;14.28;68.35;101940.34;4976222;28;20030;-81
2022/07/27 05:04:38;;;;;;;4.82;3.03;;;;;;;14.36;67.98;101929.81;4975413;28;20066;-81
2022/07/27 05:07:03;;;;;;;13.73;9.88;;;;;;;14.50;67.87;101941.53;4976258;28;20030;-81
2022/07/27 05:09:29;;;;;;;14.30;8.55;;;;;;;14.44;67.62;101918.41;4974814;28;20035;-81
2022/07/27 05:11:54;;;;;;;8.82;4.38;;;;;;;14.53;67.93;101907.91;4976048;28;20033;-81
2022/07/27 05:14:20;;;;;;;5.80;3.58;;;;;;;14.74;68.00;101928.53;4976502;28;20367;-82
2022/07/27 05:16:45;;;;;;;5.57;3.53;;;;;;;14.88;67.77;101944.63;4974547;28;20027;-82
2022/07/27 05:19:11;;;;;;;6.13;3.50;;;;;;;14.88;68.10;101943.75;4976107;28;20027;-82
2022/07/27 05:21:37;;;;;;;6.53;3.50;;;;;;;14.99;68.28;101953.63;4976037;28;20367;-82
2022/07/27 05:24:02;;;;;;;5.68;3.50;;;;;;;15.15;68.57;101945.78;4975859;28;20027;-82
2022/07/27 05:26:28;;;;;;;11.73;3.60;;;;;;;15.25;68.41;101940.56;4975188;28;20034;-82
2022/07/27 05:28:53;;;;;;;9.50;3.65;;;;;;;15.40;68.31;101933.59;4958631;28;20041;-82
2022/07/27 05:31:19;;;;;;;9.63;4.00;;;;;;;15.43;68.71;101934.50;4976087;28;20026;-82
2022/07/27 05:33:44;;;;;;;7.82;3.60;;;;;;;15.76;67.97;101952.56;4975828;28;20034;-82
2022/07/27 05:36:09;;;;;;;10.38;3.40;;;;;;;15.94;67.61;101964.22;4974304;28;20031;-82
2022/07/27 05:38:39;;;;;;;8.02;3.60;;;;;;;16.06;68.22;101960.72;4974266;28;20501;-82
2022/07/27 05:41:08;;;;;;;9.52;3.17;;;;;;;16.19;67.15;101951.94;4975777;28;20486;-81
2022/07/27 05:43:33;;;;;;;10.57;3.15;;;;;;;16.38;67.01;101961.81;4975719;28;20113;-82
2022/07/27 05:45:59;;;;;;;7.32;3.00;;;;;;;16.40;66.48;101930.72;4974154;28;20118;-82
2022/07/27 05:48:24;;;;;;;9.45;3.05;;;;;;;16.58;66.46;101953.91;4936225;28;1105512;-82
2022/07/27 05:50:50;;;;;;;12.25;3.30;;;;;;;16.67;66.09;101945.91;4976744;28;20383;-82
2022/07/27 05:53:15;;;;;;;6.38;3.17;;;;;;;16.76;66.25;101963.78;4976197;28;20034;-82
2022/07/27 05:55:41;;;;;;;7.32;3.08;;;;;;;16.84;66.23;101969.13;4976622;28;20089;-82
2022/07/27 05:58:07;;;;;;;10.40;3.00;;;;;;;16.96;65.15;101956.72;4976281;28;20035;-81
2022/07/27 06:00:32;;;;;;;7.68;2.95;;;;;;;17.21;65.31;101970.09;4976344;28;20451;-81
2022/07/27 06:02:58;;;;;;;7.25;2.95;;;;;;;17.33;64.59;101978.13;4974645;28;20061;-81
2022/07/27 06:05:23;;;;;;;10.93;2.97;;;;;;;17.49;63.90;101966.56;4976129;28;20034;-82
2022/07/27 06:07:58;;;;;;;7.35;2.78;;;;;;;17.66;62.67;101966.56;4975191;28;20117;-81
2022/07/27 06:10:27;;;;;;;10.35;2.90;;;;;;;17.84;62.59;101980.84;4977118;28;20035;-81
2022/07/27 06:12:53;;;;;;;7.90;2.80;;;;;;;17.91;62.10;101966.56;4977449;28;20085;-83
2022/07/27 06:15:18;;;;;;;5.90;2.50;;;;;;;18.14;61.91;101966.50;4975253;28;20113;-83
2022/07/27 06:17:45;;;;;;;10.45;2.50;;;;;;;18.33;61.35;101965.56;4977205;28;20026;-82
2022/07/27 06:20:11;;;;;;;8.15;2.67;;;;;;;18.32;60.01;101970.91;4976522;28;20050;-81
2022/07/27 06:22:51;;;;;;;7.90;2.75;;;;;;;18.61;60.76;101987.75;4976060;28;20042;-82
2022/07/27 06:25:18;;;;;;;7.70;2.30;;;;;;;18.62;59.12;101969.91;4976612;28;20485;-79
2022/07/27 06:27:44;;;;;;;4.80;2.17;;;;;;;18.73;58.08;101971.69;4976744;28;20422;-85
2022/07/27 06:30:12;;;;;;;6.82;2.47;;;;;;;18.87;58.57;101965.34;4978751;28;20030;-82
2022/07/27 06:32:38;;;;;;;10.10;1.98;;;;;;;19.10;56.61;101974.16;4975921;28;20106;-80
2022/07/27 06:35:04;;;;;;;5.55;2.20;;;;;;;19.15;56.75;101961.63;4975784;28;20121;-81
2022/07/27 06:37:30;;;;;;;6.22;2.03;;;;;;;19.44;56.76;101982.84;4974309;28;20081;-80
2022/07/27 06:39:57;;;;;;;8.40;2.00;;;;;;;19.56;55.03;101981.84;4975683;28;20023;-81
2022/07/27 06:42:22;;;;;;;5.65;2.45;;;;;;;19.75;55.15;101971.88;4974247;28;20027;-80
2022/07/27 06:44:48;;;;;;;7.15;2.30;;;;;;;19.87;54.53;101974.47;4975419;28;20061;-80
2022/07/27 06:47:13;;;;;;;8.10;2.22;;;;;;;19.82;53.51;101954.81;4975056;28;20065;-80
2022/07/27 06:49:39;;;;;;;3.97;1.90;;;;;;;19.93;52.96;101984.22;4975433;28;20094;-81
2022/07/27 06:52:06;;;;;;;7.10;2.05;;;;;;;19.92;52.59;101950.28;4975293;28;20031;-81
2022/07/27 06:54:32;;;;;;;7.32;1.80;;;;;;;20.18;52.36;101969.66;4974227;28;20031;-82
2022/07/27 06:56:58;;;;;;;8.65;2.00;;;;;;;20.23;52.98;101981.22;4974139;28;20038;-83
2022/07/27 06:59:24;;;;;;;5.20;1.98;;;;;;;20.43;51.90;101975.63;4972946;28;20023;-79
2022/07/27 07:01:49;;;;;;;4.88;1.77;;;;;;;20.55;51.19;101971.03;4973918;28;20042;-82
2022/07/27 07:04:15;;;;;;;9.23;1.90;;;;;;;20.60;50.89;101962.03;4974959;28;20535;-81
2022/07/27 07:06:44;;;;;;;8.32;2.00;;;;;;;20.78;50.65;101978.81;4957671;28;20035;-84
2022/07/27 07:09:12;;;;;;;5.03;1.90;;;;;;;20.93;50.50;101984.84;4957732;28;20046;-83
2022/07/27 07:11:51;;;;;;;6.32;2.10;;;;;;;21.22;50.53;101989.78;4974218;28;20549;-82
2022/07/27 07:14:16;;;;;;;5.38;1.90;;;;;;;21.29;49.06;101970.91;4973794;28;20030;-83
2022/07/27 07:16:49;;;;;;;5.65;2.08;;;;;;;21.50;49.42;101982.22;4975469;28;20034;-81
2022/07/27 07:19:15;;;;;;;5.10;1.80;;;;;;;21.69;48.78;101995.38;4974923;28;20019;-81
2022/07/27 07:21:41;;;;;;;8.18;2.00;;;;;;;21.70;48.08;101981.00;4974841;28;20062;-81
2022/07/27 07:24:08;;;;;;;7.22;2.00;;;;;;;21.82;46.44;101994.22;4973053;28;20064;-83
2022/07/27 07:26:37;;;;;;;9.32;2.13;;;;;;;21.62;47.29;101978.44;4974627;28;20107;-82
2022/07/27 07:29:05;;;;;;;5.93;2.40;;;;;;;21.61;46.86;101973.97;4973510;28;20038;-84
2022/07/27 07:31:31;;;;;;;8.02;2.28;;;;;;;21.84;45.95;101975.34;4973495;28;20062;-81
2022/07/27 07:33:58;;;;;;;8.65;2.10;;;;;;;21.82;47.23;101999.63;4973278;28;20030;-82
2022/07/27 07:36:24;;;;;;;6.68;2.40;;;;;;;21.47;47.37;101990.34;4975027;28;20030;-82
2022/07/27 07:38:50;;;;;;;6.32;2.20;;;;;;;21.22;48.38;101996.97;4973140;28;20023;-84
2022/07/27 07:41:15;;;;;;;4.53;2.00;;;;;;;21.24;49.34;101989.75;4972687;28;20027;-82
2022/07/27 07:43:41;;;;;;;7.85;2.50;;;;;;;21.62;47.86;101993.69;4972683;28;20031;-83
2022/07/27 07:46:07;;;;;;;9.05;2.58;;;;;;;22.00;46.87;102003.78;4955020;28;20046;-84
2022/07/27 07:48:33;;;;;;;7.43;2.50;;;;;;;22.44;45.61;101988.59;4972674;28;20055;-83
2022/07/27 07:50:59;;;;;;;7.53;2.30;;;;;;;22.78;45.57;101999.56;4971465;28;20058;-83
2022/07/27 07:53:24;;;;;;;6.90;2.30;;;;;;;22.86;44.27;101996.69;4972864;28;20110;-86
2022/07/27 07:55:51;;;;;;;7.22;2.10;;;;;;;22.87;44.29;102003.84;4971729;28;20035;-89
2022/07/27 07:58:17;;;;;;;7.20;2.20;;;;;;;22.87;43.67;102009.25;4974523;28;20022;-87
2022/07/27 08:00:43;;;;;;;7.63;2.00;;;;;;;23.15;42.58;101985.28;4972800;28;20431;-88
2022/07/27 08:03:08;;;;;;;5.70;2.28;;;;;;;23.49;41.94;102005.13;4973661;28;20526;-88
2022/07/27 08:05:34;;;;;;;5.95;2.33;;;;;;;23.73;42.39;102000.09;4973188;28;20505;-86
2022/07/27 08:07:59;;;;;;;8.10;2.05;;;;;;;23.97;40.57;102010.25;4973070;28;20396;-87
2022/07/27 08:10:25;;;;;;;3.53;1.75;;;;;;;24.21;40.62;102006.00;4972872;28;20551;-85
2022/07/27 08:12:53;;;;;;;6.13;1.90;;;;;;;24.54;39.32;102002.41;4956840;28;20034;-85
2022/07/27 08:15:19;;;;;;;4.95;2.08;;;;;;;24.66;38.37;101994.81;4972962;28;20057;-85
2022/07/27 08:17:45;;;;;;;9.27;2.03;;;;;;;24.84;37.35;101987.09;4974050;28;20034;-85
2022/07/27 08:20:12;;;;;;;5.20;2.08;;;;;;;24.87;37.20;102023.03;4973991;28;20344;-87
2022/07/27 08:22:38;;;;;;;4.90;2.20;;;;;;;24.86;38.00;102007.75;4973884;28;20022;-86
2022/07/27 08:25:04;;;;;;;6.57;2.40;;;;;;;24.98;38.68;102014.63;4976595;28;20023;-87
2022/07/27 08:27:29;;;;;;;3.90;1.90;;;;;;;25.04;35.91;102010.81;4978647;28;20034;-87
2022/07/27 08:29:55;;;;;;;7.93;2.45;;;;;;;25.08;38.23;102001.69;4979243;28;20026;-88
2022/07/27 08:32:20;;;;;;;5.50;2.10;;;;;;;25.23;37.27;102004.84;4977675;28;20027;-87
2022/07/27 08:34:46;;;;;;;6.32;1.90;;;;;;;25.44;37.22;102005.97;4978081;28;20027;-88
2022/07/27 08:37:11;;;;;;;6.95;2.30;;;;;;;25.60;37.83;102006.31;4978674;28;20038;-88
2022/07/27 08:39:37;;;;;;;4.47;2.08;;;;;;;25.67;35.45;102004.31;4978450;28;20038;-87
2022/07/27 08:42:08;;;;;;;6.72;2.00;;;;;;;25.34;34.71;101985.53;4977784;28;20431;-88
2022/07/27 08:44:34;;;;;;;3.55;1.80;;;;;;;24.99;36.29;102000.16;4977767;28;20030;-86
2022/07/27 08:47:01;;;;;;;7.38;2.00;;;;;;;24.54;36.97;101995.22;4977353;28;20062;-85
2022/07/27 08:49:28;;;;;;;6.18;1.90;;;;;;;24.35;36.93;101996.63;4979036;28;20050;-84
2022/07/27 08:51:54;;;;;;;4.47;2.00;;;;;;;23.91;37.02;101994.22;4977170;28;20022;-83
2022/07/27 08:54:20;;;;;;;5.68;1.92;;;;;;;23.60;37.65;101998.59;4978182;28;20030;-86
2022/07/27 08:56:47;;;;;;;5.65;2.10;;;;;;;23.34;37.59;102000.13;4978404;28;20062;-86
2022/07/27 08:59:12;;;;;;;3.25;1.67;;;;;;;23.20;37.74;102000.44;4977118;28;20030;-83
2022/07/27 09:01:38;;;;;;;4.13;1.70;;;;;;;23.04;37.31;101992.72;4978610;28;20071;-85
2022/07/27 09:04:03;;;;;;;4.15;1.75;;;;;;;23.04;36.79;102001.75;4978347;28;20023;-84
2022/07/27 09:06:46;;;;;;;3.33;1.70;;;;;;;23.41;37.29;102001.75;4977263;28;20039;-84
2022/07/27 09:09:15;;;;;;;3.78;1.65;;;;;;;23.95;35.87;102011.22;4978560;28;20058;-82
2022/07/27 09:11:40;;;;;;;3.70;1.60;;;;;;;24.60;34.26;101996.84;4978347;28;20091;-85
2022/07/27 09:14:09;;;;;;;5.00;1.60;;;;;;;24.89;34.39;101983.34;4976868;28;20575;-83
2022/07/27 09:16:35;;;;;;;4.72;1.80;;;;;;;25.47;31.86;101969.78;4978616;28;20333;-86
2022/07/27 09:19:06;;;;;;;3.58;1.63;;;;;;;25.93;32.28;101998.03;4978586;28;20522;-86
2022/07/27 09:21:33;;;;;;;3.63;1.70;;;;;;;26.26;30.38;101998.66;4977799;28;20027;-86
2022/07/27 09:24:04;;;;;;;3.70;1.50;;;;;;;26.66;30.71;101994.47;4980374;28;20414;-85
2022/07/27 09:26:30;;;;;;;3.75;1.60;;;;;;;27.17;30.18;101994.28;4981587;28;20114;-82
2022/07/27 09:28:59;;;;;;;4.18;1.70;;;;;;;27.20;30.06;102009.56;4976818;28;20026;-84
2022/07/27 09:31:24;;;;;;;6.22;1.70;;;;;;;26.65;30.81;101996.31;4977175;28;20030;-86
2022/07/27 09:33:55;;;;;;;6.78;1.83;;;;;;;26.21;30.92;101996.09;4977092;28;20022;-86
2022/07/27 09:36:23;;;;;;;6.85;1.70;;;;;;;25.60;32.05;102005.44;4977144;28;20030;-88
2022/07/27 09:39:07;;;;;;;5.60;1.85;;;;;;;25.21;32.38;102009.38;4976795;28;20081;-86
2022/07/27 09:41:46;;;;;;;7.38;1.83;;;;;;;25.02;32.99;102001.88;4975512;28;20084;-87
2022/07/27 09:44:12;;;;;;;4.70;1.60;;;;;;;25.32;33.00;102006.34;4975163;28;20572;-84
2022/07/27 09:46:45;;;;;;;4.95;2.00;;;;;;;25.59;32.80;101988.31;4975363;28;20121;-87
2022/07/27 09:49:32;;;;;;;3.75;1.98;;;;;;;26.16;31.64;101994.47;4976538;28;20041;-86
2022/07/27 09:51:59;;;;;;;4.53;2.10;;;;;;;26.44;30.12;101987.16;4976783;28;20047;-83
2022/07/27 09:54:24;;;;;;;3.60;1.80;;;;;;;26.29;30.56;101986.78;4975018;28;20432;-84
2022/07/27 09:57:01;;;;;;;4.95;1.80;;;;;;;26.47;32.15;101991.59;4976470;28;20050;-83
2022/07/27 09:59:28;;;;;;;7.80;1.80;;;;;;;26.82;30.51;102002.91;4976438;28;20022;-83
2022/07/27 10:01:55;;;;;;;4.00;1.85;;;;;;;26.56;30.56;101993.06;4976212;28;20026;-84
2022/07/27 10:04:21;;;;;;;5.93;1.90;;;;;;;26.31;30.77;101993.06;4976467;28;20023;-83
2022/07/27 10:06:46;;;;;;;4.57;1.83;;;;;;;25.83;31.33;101996.59;4976570;28;20023;-82
2022/07/27 10:09:12;;;;;;;2.80;1.60;;;;;;;25.50;30.96;101994.03;4976132;28;20035;-83
2022/07/27 10:11:38;;;;;;;5.43;1.58;;;;;;;25.16;30.87;101997.84;4975426;28;20046;-85
2022/07/27 10:14:04;;;;;;;9.45;1.83;;;;;;;24.99;31.48;101989.34;4974991;28;20034;-83
2022/07/27 10:16:31;;;;;;;5.53;1.50;;;;;;;24.98;30.68;101996.56;4958973;28;20034;-83
2022/07/27 10:19:12;;;;;;;5.20;1.50;;;;;;;25.08;31.83;101999.91;4976002;28;20042;-84
2022/07/27 10:21:39;;;;;;;4.68;1.90;;;;;;;24.71;31.62;101983.88;4974880;28;20034;-82
2022/07/27 10:24:23;;;;;;;3.85;1.58;;;;;;;24.59;33.54;101986.97;4975752;28;20031;-82
2022/07/27 10:26:48;;;;;;;4.22;1.77;;;;;;;24.87;32.72;101989.72;4976054;28;20069;-82
2022/07/27 10:29:16;;;;;;;5.85;1.65;;;;;;;25.44;32.01;101994.25;4975056;28;20441;-82
2022/07/27 10:32:00;;;;;;;3.83;1.70;;;;;;;25.42;32.94;101980.75;4975893;28;20030;-83
2022/07/27 10:34:36;;;;;;;6.35;1.83;;;;;;;25.32;32.93;101968.47;4975002;28;20069;-84
2022/07/27 10:37:13;;;;;;;5.35;1.90;;;;;;;25.38;33.27;101968.25;4974740;28;20062;-83
2022/07/27 10:42:38;;;;;;;4.32;1.75;;;;;;;25.98;31.24;101977.06;4975944;28;20046;-84
2022/07/27 10:45:09;;;;;;;3.78;1.90;;;;;;;26.10;31.19;101973.94;4975766;28;20037;-81
2022/07/27 10:47:37;;;;;;;4.40;2.10;;;;;;;26.59;30.95;101974.81;4974260;28;20054;-81
2022/07/27 10:50:15;;;;;;;4.68;1.70;;;;;;;27.32;30.66;101972.88;4975541;28;20027;-79
2022/07/27 10:52:45;;;;;;;3.15;1.90;;;;;;;27.64;28.99;101972.41;4975062;28;20023;-80
2022/07/27 10:55:32;;;;;;;7.05;2.00;;;;;;;27.69;30.35;101962.22;4975477;28;20031;-82
2022/07/27 10:58:27;;;;;;;4.30;1.80;;;;;;;27.36;30.29;101972.69;4975509;28;20022;-81
2022/07/27 11:00:52;;;;;;;5.32;1.90;;;;;;;26.63;31.87;101968.34;4975028;28;20029;-82
2022/07/27 11:03:27;;;;;;;4.53;1.80;;;;;;;26.39;32.65;101974.69;4973990;28;20026;-84
2022/07/27 11:06:00;;;;;;;5.90;2.00;;;;;;;25.81;33.58;101969.53;4974096;28;20027;-84
2022/07/27 11:08:28;;;;;;;6.60;2.08;;;;;;;26.14;33.34;101972.00;4975977;28;20019;-82
2022/07/27 11:10:54;;;;;;;3.33;1.77;;;;;;;26.34;33.00;101964.03;4978470;28;20118;-82
2022/07/27 11:13:22;;;;;;;7.07;2.08;;;;;;;26.70;32.14;101971.72;4961628;28;20073;-82
2022/07/27 11:16:17;;;;;;;5.60;2.05;;;;;;;27.23;31.04;101966.00;4975566;28;20082;-82
2022/07/27 11:18:51;;;;;;;4.65;1.85;;;;;;;27.57;32.42;101964.59;4973169;28;20034;-82
2022/07/27 11:21:21;;;;;;;5.22;1.98;;;;;;;27.87;29.56;101967.84;4975930;28;20515;-82
2022/07/27 11:23:51;;;;;;;6.15;2.10;;;;;;;28.21;27.40;101968.09;4974270;28;20026;-82
2022/07/27 11:26:17;;;;;;;5.72;1.90;;;;;;;28.37;28.05;101953.88;4975166;28;20031;-83
2022/07/27 11:28:42;;;;;;;3.58;1.70;;;;;;;27.90;28.88;101959.56;4974862;28;20027;-83